Berltsum, Netherlands
Current Conditions -  °F | °C
As of 7:25 PM on Sunday 25 Jan 2015 (Local Time) from EHLW Reporting Station
Moderate Rain Moderate Rain  
Wind Chill: 34°   Ceiling: 4400
Heat Index: 37°   Visibility: 6mi
Dew Point: 37°   Wind: 5mph
Humidity: 100%   Direction: 200°SSW
Pressure: 30.27"   Gusts: NA
Location:  53.24°N, 5.65°E
Report Text: EHLW 251825Z AUTO 20004KT 9000 DZRA BKN044 OVC049 03/03 Q1025 BLU
Loading
Personal Weather Stations






























Interactive Weather Map New forecast layout! Learn more

10-Day Weather Forecast

Advertisements
Track Severe Weather on mobile